sensor_id;sensor_type;location;lat;lon;timestamp;P1;durP1;ratioP1;P2;durP2;ratioP2
21494;SDS011;10909;53.590;10.054;2022-09-03T00:00:17;0.85;;;0.60;;
21494;SDS011;10909;53.590;10.054;2022-09-03T00:02:57;0.82;;;0.70;;
21494;SDS011;10909;53.590;10.054;2022-09-03T00:05:34;1.27;;;0.70;;
21494;SDS011;10909;53.590;10.054;2022-09-03T00:11:01;0.90;;;0.80;;
21494;SDS011;10909;53.590;10.054;2022-09-03T00:16:27;0.80;;;0.80;;
21494;SDS011;10909;53.590;10.054;2022-09-03T00:18:59;1.23;;;0.80;;
21494;SDS011;10909;53.590;10.054;2022-09-03T00:21:34;0.88;;;0.77;;
21494;SDS011;10909;53.590;10.054;2022-09-03T00:24:02;0.60;;;0.60;;
21494;SDS011;10909;53.590;10.054;2022-09-03T00:26:30;0.60;;;0.60;;
21494;SDS011;10909;53.590;10.054;2022-09-03T00:29:06;1.63;;;0.60;;
21494;SDS011;10909;53.590;10.054;2022-09-03T00:31:47;1.02;;;0.75;;
21494;SDS011;10909;53.590;10.054;2022-09-03T00:34:25;0.70;;;0.65;;
21494;SDS011;10909;53.590;10.054;2022-09-03T00:37:16;0.95;;;0.80;;
21494;SDS011;10909;53.590;10.054;2022-09-03T00:39:42;0.98;;;0.85;;
21494;SDS011;10909;53.590;10.054;2022-09-03T00:45:14;2.78;;;0.73;;
21494;SDS011;10909;53.590;10.054;2022-09-03T00:48:16;2.60;;;0.75;;
21494;SDS011;10909;53.590;10.054;2022-09-03T00:53:42;0.93;;;0.70;;
21494;SDS011;10909;53.590;10.054;2022-09-03T00:58:59;0.85;;;0.68;;
21494;SDS011;10909;53.590;10.054;2022-09-03T01:18:00;1.10;;;0.90;;
21494;SDS011;10909;53.590;10.054;2022-09-03T01:20:34;0.93;;;0.70;;
21494;SDS011;10909;53.590;10.054;2022-09-03T01:29:01;0.55;;;0.55;;
21494;SDS011;10909;53.590;10.054;2022-09-03T01:34:33;1.15;;;0.80;;
21494;SDS011;10909;53.590;10.054;2022-09-03T01:37:27;1.00;;;0.70;;
21494;SDS011;10909;53.590;10.054;2022-09-03T01:43:35;1.02;;;0.75;;
21494;SDS011;10909;53.590;10.054;2022-09-03T01:46:20;1.08;;;0.90;;
21494;SDS011;10909;53.590;10.054;2022-09-03T01:48:57;0.80;;;0.75;;
21494;SDS011;10909;53.590;10.054;2022-09-03T01:51:35;1.00;;;0.82;;
21494;SDS011;10909;53.590;10.054;2022-09-03T01:54:05;0.88;;;0.80;;
21494;SDS011;10909;53.590;10.054;2022-09-03T01:59:42;0.73;;;0.70;;
21494;SDS011;10909;53.590;10.054;2022-09-03T02:01:56;0.85;;;0.80;;
21494;SDS011;10909;53.590;10.054;2022-09-03T02:04:27;0.70;;;0.70;;
21494;SDS011;10909;53.590;10.054;2022-09-03T02:06:53;0.95;;;0.80;;
21494;SDS011;10909;53.590;10.054;2022-09-03T02:09:21;1.10;;;0.60;;
21494;SDS011;10909;53.590;10.054;2022-09-03T02:11:55;0.60;;;0.60;;
21494;SDS011;10909;53.590;10.054;2022-09-03T02:14:44;0.50;;;0.50;;
21494;SDS011;10909;53.590;10.054;2022-09-03T02:17:10;0.70;;;0.60;;
21494;SDS011;10909;53.590;10.054;2022-09-03T02:19:37;1.20;;;0.85;;
21494;SDS011;10909;53.590;10.054;2022-09-03T02:22:03;0.73;;;0.68;;
21494;SDS011;10909;53.590;10.054;2022-09-03T02:24:29;0.85;;;0.70;;
21494;SDS011;10909;53.590;10.054;2022-09-03T02:26:56;0.88;;;0.82;;
21494;SDS011;10909;53.590;10.054;2022-09-03T02:29:22;0.90;;;0.80;;
21494;SDS011;10909;53.590;10.054;2022-09-03T02:31:48;0.60;;;0.47;;
21494;SDS011;10909;53.590;10.054;2022-09-03T02:34:15;2.35;;;1.05;;
21494;SDS011;10909;53.590;10.054;2022-09-03T02:36:45;0.80;;;0.80;;
21494;SDS011;10909;53.590;10.054;2022-09-03T02:39:14;0.80;;;0.70;;
21494;SDS011;10909;53.590;10.054;2022-09-03T02:41:41;0.70;;;0.57;;
21494;SDS011;10909;53.590;10.054;2022-09-03T02:44:15;0.98;;;0.88;;
21494;SDS011;10909;53.590;10.054;2022-09-03T02:46:51;1.67;;;0.85;;
21494;SDS011;10909;53.590;10.054;2022-09-03T02:49:20;0.60;;;0.60;;
21494;SDS011;10909;53.590;10.054;2022-09-03T02:51:46;0.80;;;0.80;;
21494;SDS011;10909;53.590;10.054;2022-09-03T02:54:12;1.13;;;0.80;;
21494;SDS011;10909;53.590;10.054;2022-09-03T02:56:38;0.90;;;0.80;;
21494;SDS011;10909;53.590;10.054;2022-09-03T02:59:05;0.70;;;0.70;;
21494;SDS011;10909;53.590;10.054;2022-09-03T03:01:32;1.85;;;0.80;;
21494;SDS011;10909;53.590;10.054;2022-09-03T03:03:58;0.60;;;0.60;;
21494;SDS011;10909;53.590;10.054;2022-09-03T03:06:24;1.00;;;0.90;;
21494;SDS011;10909;53.590;10.054;2022-09-03T03:08:50;1.48;;;0.70;;
21494;SDS011;10909;53.590;10.054;2022-09-03T03:11:16;1.15;;;0.82;;
21494;SDS011;10909;53.590;10.054;2022-09-03T03:13:44;1.55;;;0.90;;
21494;SDS011;10909;53.590;10.054;2022-09-03T03:16:10;1.30;;;0.90;;
21494;SDS011;10909;53.590;10.054;2022-09-03T03:18:37;0.75;;;0.75;;
21494;SDS011;10909;53.590;10.054;2022-09-03T03:21:10;1.30;;;0.77;;
21494;SDS011;10909;53.590;10.054;2022-09-03T03:23:37;1.50;;;0.90;;
21494;SDS011;10909;53.590;10.054;2022-09-03T03:26:11;1.17;;;0.90;;
21494;SDS011;10909;53.590;10.054;2022-09-03T03:28:38;0.70;;;0.70;;
21494;SDS011;10909;53.590;10.054;2022-09-03T03:33:36;1.20;;;0.70;;
21494;SDS011;10909;53.590;10.054;2022-09-03T03:36:07;1.88;;;0.98;;
21494;SDS011;10909;53.590;10.054;2022-09-03T03:38:35;0.85;;;0.82;;
21494;SDS011;10909;53.590;10.054;2022-09-03T03:43:34;1.33;;;1.00;;
21494;SDS011;10909;53.590;10.054;2022-09-03T03:46:01;1.80;;;0.85;;
21494;SDS011;10909;53.590;10.054;2022-09-03T03:48:27;1.55;;;0.95;;
21494;SDS011;10909;53.590;10.054;2022-09-03T03:50:52;0.85;;;0.80;;
21494;SDS011;10909;53.590;10.054;2022-09-03T03:53:18;0.80;;;0.77;;
21494;SDS011;10909;53.590;10.054;2022-09-03T03:55:53;0.82;;;0.70;;
21494;SDS011;10909;53.590;10.054;2022-09-03T03:58:20;1.10;;;0.77;;
21494;SDS011;10909;53.590;10.054;2022-09-03T04:00:46;0.88;;;0.80;;
21494;SDS011;10909;53.590;10.054;2022-09-03T04:03:12;1.25;;;0.90;;
21494;SDS011;10909;53.590;10.054;2022-09-03T04:05:37;0.95;;;0.88;;
21494;SDS011;10909;53.590;10.054;2022-09-03T04:08:03;1.15;;;0.80;;
21494;SDS011;10909;53.590;10.054;2022-09-03T04:10:28;0.60;;;0.60;;
21494;SDS011;10909;53.590;10.054;2022-09-03T04:12:54;1.20;;;0.65;;
21494;SDS011;10909;53.590;10.054;2022-09-03T04:15:20;1.50;;;0.80;;
21494;SDS011;10909;53.590;10.054;2022-09-03T04:17:46;0.50;;;0.50;;
21494;SDS011;10909;53.590;10.054;2022-09-03T04:20:11;1.10;;;1.00;;
21494;SDS011;10909;53.590;10.054;2022-09-03T04:22:37;0.75;;;0.75;;
21494;SDS011;10909;53.590;10.054;2022-09-03T04:25:02;1.23;;;1.00;;
21494;SDS011;10909;53.590;10.054;2022-09-03T04:27:28;0.95;;;0.90;;
21494;SDS011;10909;53.590;10.054;2022-09-03T04:29:55;1.05;;;0.77;;
21494;SDS011;10909;53.590;10.054;2022-09-03T04:32:20;1.10;;;0.67;;
21494;SDS011;10909;53.590;10.054;2022-09-03T04:35:04;0.88;;;0.88;;
21494;SDS011;10909;53.590;10.054;2022-09-03T04:37:31;0.98;;;0.85;;
21494;SDS011;10909;53.590;10.054;2022-09-03T04:39:57;1.07;;;0.87;;
21494;SDS011;10909;53.590;10.054;2022-09-03T04:42:23;1.47;;;0.90;;
21494;SDS011;10909;53.590;10.054;2022-09-03T04:44:48;0.83;;;0.80;;
21494;SDS011;10909;53.590;10.054;2022-09-03T04:47:14;2.45;;;0.85;;
21494;SDS011;10909;53.590;10.054;2022-09-03T04:49:40;0.93;;;0.82;;
21494;SDS011;10909;53.590;10.054;2022-09-03T04:52:06;1.23;;;0.90;;
21494;SDS011;10909;53.590;10.054;2022-09-03T04:54:32;0.80;;;0.80;;
21494;SDS011;10909;53.590;10.054;2022-09-03T04:56:57;1.20;;;0.90;;
21494;SDS011;10909;53.590;10.054;2022-09-03T04:59:23;1.17;;;0.90;;
21494;SDS011;10909;53.590;10.054;2022-09-03T05:01:48;0.70;;;0.70;;
21494;SDS011;10909;53.590;10.054;2022-09-03T05:04:16;1.00;;;0.90;;
21494;SDS011;10909;53.590;10.054;2022-09-03T05:06:43;0.70;;;0.70;;
21494;SDS011;10909;53.590;10.054;2022-09-03T05:09:09;1.30;;;0.68;;
21494;SDS011;10909;53.590;10.054;2022-09-03T05:11:35;0.97;;;0.87;;
21494;SDS011;10909;53.590;10.054;2022-09-03T05:14:04;1.10;;;0.70;;
21494;SDS011;10909;53.590;10.054;2022-09-03T05:16:35;1.00;;;0.90;;
21494;SDS011;10909;53.590;10.054;2022-09-03T05:19:02;0.75;;;0.70;;
21494;SDS011;10909;53.590;10.054;2022-09-03T05:21:32;3.42;;;1.05;;
21494;SDS011;10909;53.590;10.054;2022-09-03T05:24:00;1.00;;;0.88;;
21494;SDS011;10909;53.590;10.054;2022-09-03T05:26:28;0.77;;;0.77;;
21494;SDS011;10909;53.590;10.054;2022-09-03T05:28:56;1.73;;;0.90;;
21494;SDS011;10909;53.590;10.054;2022-09-03T05:31:24;1.48;;;0.77;;
21494;SDS011;10909;53.590;10.054;2022-09-03T05:33:55;1.45;;;0.80;;
21494;SDS011;10909;53.590;10.054;2022-09-03T05:36:24;0.88;;;0.73;;
21494;SDS011;10909;53.590;10.054;2022-09-03T05:38:52;0.82;;;0.68;;
21494;SDS011;10909;53.590;10.054;2022-09-03T05:41:21;0.80;;;0.60;;
21494;SDS011;10909;53.590;10.054;2022-09-03T05:43:48;1.00;;;0.90;;
21494;SDS011;10909;53.590;10.054;2022-09-03T05:46:23;1.10;;;1.00;;
21494;SDS011;10909;53.590;10.054;2022-09-03T05:48:55;1.20;;;1.07;;
21494;SDS011;10909;53.590;10.054;2022-09-03T05:51:31;0.70;;;0.70;;
21494;SDS011;10909;53.590;10.054;2022-09-03T05:53:58;1.00;;;0.90;;
21494;SDS011;10909;53.590;10.054;2022-09-03T05:56:24;1.00;;;0.90;;
21494;SDS011;10909;53.590;10.054;2022-09-03T05:58:52;0.90;;;0.75;;
21494;SDS011;10909;53.590;10.054;2022-09-03T06:03:47;2.00;;;0.80;;
21494;SDS011;10909;53.590;10.054;2022-09-03T06:06:22;1.48;;;0.80;;
21494;SDS011;10909;53.590;10.054;2022-09-03T06:08:51;0.75;;;0.75;;
21494;SDS011;10909;53.590;10.054;2022-09-03T06:11:19;0.75;;;0.75;;
21494;SDS011;10909;53.590;10.054;2022-09-03T06:13:45;1.35;;;0.80;;
21494;SDS011;10909;53.590;10.054;2022-09-03T06:16:11;0.70;;;0.70;;
21494;SDS011;10909;53.590;10.054;2022-09-03T06:18:37;0.88;;;0.75;;
21494;SDS011;10909;53.590;10.054;2022-09-03T06:21:06;1.40;;;0.80;;
21494;SDS011;10909;53.590;10.054;2022-09-03T06:23:33;1.17;;;0.70;;
21494;SDS011;10909;53.590;10.054;2022-09-03T06:28:34;0.80;;;0.80;;
21494;SDS011;10909;53.590;10.054;2022-09-03T06:31:02;0.68;;;0.57;;
21494;SDS011;10909;53.590;10.054;2022-09-03T06:33:32;0.75;;;0.75;;
21494;SDS011;10909;53.590;10.054;2022-09-03T06:35:59;1.75;;;0.85;;
21494;SDS011;10909;53.590;10.054;2022-09-03T06:38:28;1.08;;;0.88;;
21494;SDS011;10909;53.590;10.054;2022-09-03T06:41:00;1.30;;;0.77;;
21494;SDS011;10909;53.590;10.054;2022-09-03T06:43:33;0.70;;;0.70;;
21494;SDS011;10909;53.590;10.054;2022-09-03T06:48:58;2.45;;;0.70;;
21494;SDS011;10909;53.590;10.054;2022-09-03T06:51:25;0.90;;;0.82;;
21494;SDS011;10909;53.590;10.054;2022-09-03T06:53:54;2.15;;;0.90;;
21494;SDS011;10909;53.590;10.054;2022-09-03T06:56:24;1.00;;;0.90;;
21494;SDS011;10909;53.590;10.054;2022-09-03T06:58:54;0.73;;;0.68;;
21494;SDS011;10909;53.590;10.054;2022-09-03T07:01:22;1.10;;;1.00;;
21494;SDS011;10909;53.590;10.054;2022-09-03T07:03:54;0.80;;;0.80;;
21494;SDS011;10909;53.590;10.054;2022-09-03T07:06:22;0.82;;;0.77;;
21494;SDS011;10909;53.590;10.054;2022-09-03T07:08:49;1.63;;;0.90;;
21494;SDS011;10909;53.590;10.054;2022-09-03T07:11:16;1.35;;;0.90;;
21494;SDS011;10909;53.590;10.054;2022-09-03T07:13:45;0.80;;;0.70;;
21494;SDS011;10909;53.590;10.054;2022-09-03T07:16:13;1.23;;;0.88;;
21494;SDS011;10909;53.590;10.054;2022-09-03T07:18:40;3.55;;;1.00;;
21494;SDS011;10909;53.590;10.054;2022-09-03T07:21:11;1.33;;;0.90;;
21494;SDS011;10909;53.590;10.054;2022-09-03T07:23:41;2.25;;;0.90;;
21494;SDS011;10909;53.590;10.054;2022-09-03T07:26:09;0.90;;;0.90;;
21494;SDS011;10909;53.590;10.054;2022-09-03T07:28:37;2.08;;;0.88;;
21494;SDS011;10909;53.590;10.054;2022-09-03T07:31:11;2.50;;;1.00;;
21494;SDS011;10909;53.590;10.054;2022-09-03T07:33:49;1.15;;;0.98;;
21494;SDS011;10909;53.590;10.054;2022-09-03T07:36:27;1.92;;;0.80;;
21494;SDS011;10909;53.590;10.054;2022-09-03T07:38:54;2.55;;;0.90;;
21494;SDS011;10909;53.590;10.054;2022-09-03T07:41:21;1.23;;;0.80;;
21494;SDS011;10909;53.590;10.054;2022-09-03T07:43:47;1.90;;;0.90;;
21494;SDS011;10909;53.590;10.054;2022-09-03T07:46:14;1.17;;;0.82;;
21494;SDS011;10909;53.590;10.054;2022-09-03T07:48:47;1.25;;;0.80;;
21494;SDS011;10909;53.590;10.054;2022-09-03T07:51:16;1.00;;;0.80;;
21494;SDS011;10909;53.590;10.054;2022-09-03T07:53:43;1.00;;;0.90;;
21494;SDS011;10909;53.590;10.054;2022-09-03T07:56:10;1.55;;;0.93;;
21494;SDS011;10909;53.590;10.054;2022-09-03T07:58:37;1.27;;;0.90;;
21494;SDS011;10909;53.590;10.054;2022-09-03T08:01:08;0.82;;;0.80;;
21494;SDS011;10909;53.590;10.054;2022-09-03T08:03:34;1.02;;;0.90;;
21494;SDS011;10909;53.590;10.054;2022-09-03T08:06:01;1.00;;;0.80;;
21494;SDS011;10909;53.590;10.054;2022-09-03T08:08:31;2.55;;;0.93;;
21494;SDS011;10909;53.590;10.054;2022-09-03T08:11:07;1.58;;;1.00;;
21494;SDS011;10909;53.590;10.054;2022-09-03T08:13:57;1.10;;;0.88;;
21494;SDS011;10909;53.590;10.054;2022-09-03T08:16:31;1.00;;;0.90;;
21494;SDS011;10909;53.590;10.054;2022-09-03T08:18:58;0.98;;;0.75;;
21494;SDS011;10909;53.590;10.054;2022-09-03T08:21:24;0.77;;;0.75;;
21494;SDS011;10909;53.590;10.054;2022-09-03T08:23:52;2.30;;;0.90;;
21494;SDS011;10909;53.590;10.054;2022-09-03T08:26:21;0.95;;;0.80;;
21494;SDS011;10909;53.590;10.054;2022-09-03T08:28:47;1.05;;;0.90;;
21494;SDS011;10909;53.590;10.054;2022-09-03T08:31:14;1.10;;;0.80;;
21494;SDS011;10909;53.590;10.054;2022-09-03T08:33:44;1.10;;;1.00;;
21494;SDS011;10909;53.590;10.054;2022-09-03T08:36:15;0.80;;;0.70;;
21494;SDS011;10909;53.590;10.054;2022-09-03T08:38:49;1.55;;;1.00;;
21494;SDS011;10909;53.590;10.054;2022-09-03T08:44:28;1.00;;;0.82;;
21494;SDS011;10909;53.590;10.054;2022-09-03T08:58:11;1.45;;;1.00;;
21494;SDS011;10909;53.590;10.054;2022-09-03T09:11:33;1.65;;;1.00;;
21494;SDS011;10909;53.590;10.054;2022-09-03T09:22:23;1.42;;;0.88;;
21494;SDS011;10909;53.590;10.054;2022-09-03T09:24:54;1.10;;;0.90;;
21494;SDS011;10909;53.590;10.054;2022-09-03T09:27:23;3.05;;;1.00;;
21494;SDS011;10909;53.590;10.054;2022-09-03T09:29:50;0.88;;;0.77;;
21494;SDS011;10909;53.590;10.054;2022-09-03T09:32:17;0.90;;;0.80;;
21494;SDS011;10909;53.590;10.054;2022-09-03T09:34:44;1.02;;;0.90;;
21494;SDS011;10909;53.590;10.054;2022-09-03T09:37:12;1.00;;;0.85;;
21494;SDS011;10909;53.590;10.054;2022-09-03T09:39:51;1.10;;;0.80;;
21494;SDS011;10909;53.590;10.054;2022-09-03T09:42:22;1.40;;;0.80;;
21494;SDS011;10909;53.590;10.054;2022-09-03T09:44:48;1.27;;;0.80;;
21494;SDS011;10909;53.590;10.054;2022-09-03T09:47:21;1.17;;;0.98;;
21494;SDS011;10909;53.590;10.054;2022-09-03T09:52:17;1.25;;;0.90;;
21494;SDS011;10909;53.590;10.054;2022-09-03T09:54:44;1.45;;;0.88;;
21494;SDS011;10909;53.590;10.054;2022-09-03T09:57:20;1.00;;;0.77;;
21494;SDS011;10909;53.590;10.054;2022-09-03T09:59:47;0.93;;;0.73;;
21494;SDS011;10909;53.590;10.054;2022-09-03T10:02:18;1.15;;;0.80;;
21494;SDS011;10909;53.590;10.054;2022-09-03T10:04:53;0.70;;;0.63;;
21494;SDS011;10909;53.590;10.054;2022-09-03T10:07:29;1.05;;;0.95;;
21494;SDS011;10909;53.590;10.054;2022-09-03T10:10:00;0.93;;;0.80;;
21494;SDS011;10909;53.590;10.054;2022-09-03T10:12:35;4.53;;;0.90;;
21494;SDS011;10909;53.590;10.054;2022-09-03T10:23:19;0.80;;;0.80;;
21494;SDS011;10909;53.590;10.054;2022-09-03T10:28:32;1.20;;;0.80;;
21494;SDS011;10909;53.590;10.054;2022-09-03T10:33:53;0.90;;;0.60;;
21494;SDS011;10909;53.590;10.054;2022-09-03T10:36:32;0.73;;;0.60;;
21494;SDS011;10909;53.590;10.054;2022-09-03T10:39:37;2.33;;;0.68;;
21494;SDS011;10909;53.590;10.054;2022-09-03T10:42:26;1.35;;;0.85;;
21494;SDS011;10909;53.590;10.054;2022-09-03T10:45:04;2.47;;;0.88;;
21494;SDS011;10909;53.590;10.054;2022-09-03T11:01:09;1.10;;;0.98;;
21494;SDS011;10909;53.590;10.054;2022-09-03T11:03:42;1.17;;;0.80;;
21494;SDS011;10909;53.590;10.054;2022-09-03T11:06:28;2.00;;;1.08;;
21494;SDS011;10909;53.590;10.054;2022-09-03T11:11:36;2.35;;;0.90;;
21494;SDS011;10909;53.590;10.054;2022-09-03T11:14:12;0.70;;;0.70;;
21494;SDS011;10909;53.590;10.054;2022-09-03T11:16:44;1.27;;;0.95;;
21494;SDS011;10909;53.590;10.054;2022-09-03T11:19:15;1.45;;;0.88;;
21494;SDS011;10909;53.590;10.054;2022-09-03T11:21:44;3.20;;;0.90;;
21494;SDS011;10909;53.590;10.054;2022-09-03T11:24:13;1.10;;;1.00;;
21494;SDS011;10909;53.590;10.054;2022-09-03T11:26:43;1.95;;;1.15;;
21494;SDS011;10909;53.590;10.054;2022-09-03T11:29:19;3.85;;;0.95;;
21494;SDS011;10909;53.590;10.054;2022-09-03T11:32:23;2.17;;;0.90;;
21494;SDS011;10909;53.590;10.054;2022-09-03T11:35:44;1.05;;;0.95;;
21494;SDS011;10909;53.590;10.054;2022-09-03T11:40:57;1.20;;;0.90;;
21494;SDS011;10909;53.590;10.054;2022-09-03T11:46:01;1.17;;;1.02;;
21494;SDS011;10909;53.590;10.054;2022-09-03T11:48:46;2.00;;;0.80;;
21494;SDS011;10909;53.590;10.054;2022-09-03T11:56:27;0.93;;;0.90;;
21494;SDS011;10909;53.590;10.054;2022-09-03T12:01:38;1.00;;;0.90;;
21494;SDS011;10909;53.590;10.054;2022-09-03T12:04:34;1.73;;;0.93;;
21494;SDS011;10909;53.590;10.054;2022-09-03T12:07:30;1.00;;;0.90;;
21494;SDS011;10909;53.590;10.054;2022-09-03T12:18:16;1.05;;;1.00;;
21494;SDS011;10909;53.590;10.054;2022-09-03T12:26:01;0.80;;;0.70;;
21494;SDS011;10909;53.590;10.054;2022-09-03T12:28:33;0.80;;;0.80;;
21494;SDS011;10909;53.590;10.054;2022-09-03T12:31:13;1.67;;;0.80;;
21494;SDS011;10909;53.590;10.054;2022-09-03T12:33:50;1.10;;;1.00;;
21494;SDS011;10909;53.590;10.054;2022-09-03T12:36:18;1.40;;;1.10;;
21494;SDS011;10909;53.590;10.054;2022-09-03T12:38:47;0.80;;;0.80;;
21494;SDS011;10909;53.590;10.054;2022-09-03T12:41:21;1.77;;;0.90;;
21494;SDS011;10909;53.590;10.054;2022-09-03T12:43:55;3.08;;;1.00;;
21494;SDS011;10909;53.590;10.054;2022-09-03T12:46:27;1.25;;;0.80;;
21494;SDS011;10909;53.590;10.054;2022-09-03T12:48:55;1.00;;;0.90;;
21494;SDS011;10909;53.590;10.054;2022-09-03T12:51:26;2.15;;;0.88;;
21494;SDS011;10909;53.590;10.054;2022-09-03T12:53:56;1.08;;;0.77;;
21494;SDS011;10909;53.590;10.054;2022-09-03T12:56:23;1.45;;;0.80;;
21494;SDS011;10909;53.590;10.054;2022-09-03T12:58:58;1.02;;;0.93;;
21494;SDS011;10909;53.590;10.054;2022-09-03T13:01:39;1.55;;;0.90;;
21494;SDS011;10909;53.590;10.054;2022-09-03T13:04:34;1.00;;;0.90;;
21494;SDS011;10909;53.590;10.054;2022-09-03T13:07:03;1.85;;;0.90;;
21494;SDS011;10909;53.590;10.054;2022-09-03T13:09:35;1.10;;;0.80;;
21494;SDS011;10909;53.590;10.054;2022-09-03T13:12:03;1.33;;;1.00;;
21494;SDS011;10909;53.590;10.054;2022-09-03T13:14:40;0.95;;;0.80;;
21494;SDS011;10909;53.590;10.054;2022-09-03T13:30:31;1.48;;;0.90;;
21494;SDS011;10909;53.590;10.054;2022-09-03T13:33:07;1.08;;;0.80;;
21494;SDS011;10909;53.590;10.054;2022-09-03T13:35:58;0.90;;;0.80;;
21494;SDS011;10909;53.590;10.054;2022-09-03T13:40:54;1.20;;;1.00;;
21494;SDS011;10909;53.590;10.054;2022-09-03T13:43:42;0.70;;;0.70;;
21494;SDS011;10909;53.590;10.054;2022-09-03T13:46:19;2.60;;;0.90;;
21494;SDS011;10909;53.590;10.054;2022-09-03T13:48:55;2.55;;;0.95;;
21494;SDS011;10909;53.590;10.054;2022-09-03T13:52:02;1.23;;;0.95;;
21494;SDS011;10909;53.590;10.054;2022-09-03T13:54:34;1.17;;;0.90;;
21494;SDS011;10909;53.590;10.054;2022-09-03T13:57:31;0.70;;;0.70;;
21494;SDS011;10909;53.590;10.054;2022-09-03T14:00:08;0.95;;;0.80;;
21494;SDS011;10909;53.590;10.054;2022-09-03T14:02:44;0.70;;;0.70;;
21494;SDS011;10909;53.590;10.054;2022-09-03T14:05:46;1.20;;;0.88;;
21494;SDS011;10909;53.590;10.054;2022-09-03T14:09:13;0.93;;;0.82;;
21494;SDS011;10909;53.590;10.054;2022-09-03T14:25:08;0.93;;;0.90;;
21494;SDS011;10909;53.590;10.054;2022-09-03T14:27:46;0.98;;;0.80;;
21494;SDS011;10909;53.590;10.054;2022-09-03T14:35:34;0.80;;;0.80;;
21494;SDS011;10909;53.590;10.054;2022-09-03T14:41:21;0.70;;;0.60;;
21494;SDS011;10909;53.590;10.054;2022-09-03T14:49:57;2.53;;;1.10;;
21494;SDS011;10909;53.590;10.054;2022-09-03T14:52:44;1.00;;;0.90;;
21494;SDS011;10909;53.590;10.054;2022-09-03T14:55:34;1.10;;;0.93;;
21494;SDS011;10909;53.590;10.054;2022-09-03T15:01:10;1.15;;;1.05;;
21494;SDS011;10909;53.590;10.054;2022-09-03T15:03:56;1.75;;;1.00;;
21494;SDS011;10909;53.590;10.054;2022-09-03T15:06:49;1.17;;;0.80;;
21494;SDS011;10909;53.590;10.054;2022-09-03T15:09:43;1.92;;;1.40;;
21494;SDS011;10909;53.590;10.054;2022-09-03T15:12:29;1.80;;;1.15;;
21494;SDS011;10909;53.590;10.054;2022-09-03T15:15:09;1.58;;;0.98;;
21494;SDS011;10909;53.590;10.054;2022-09-03T15:17:45;0.90;;;0.90;;
21494;SDS011;10909;53.590;10.054;2022-09-03T15:20:47;1.02;;;0.93;;
21494;SDS011;10909;53.590;10.054;2022-09-03T15:26:26;1.83;;;0.80;;
21494;SDS011;10909;53.590;10.054;2022-09-03T15:28:56;2.20;;;0.85;;
21494;SDS011;10909;53.590;10.054;2022-09-03T15:31:51;1.10;;;0.93;;
21494;SDS011;10909;53.590;10.054;2022-09-03T15:36:50;1.25;;;0.90;;
21494;SDS011;10909;53.590;10.054;2022-09-03T15:39:39;1.48;;;0.88;;
21494;SDS011;10909;53.590;10.054;2022-09-03T15:42:07;0.80;;;0.80;;
21494;SDS011;10909;53.590;10.054;2022-09-03T15:45:02;1.10;;;1.00;;
21494;SDS011;10909;53.590;10.054;2022-09-03T15:47:31;1.20;;;1.10;;
21494;SDS011;10909;53.590;10.054;2022-09-03T15:52:58;1.30;;;1.20;;
21494;SDS011;10909;53.590;10.054;2022-09-03T15:55:42;1.45;;;1.20;;
21494;SDS011;10909;53.590;10.054;2022-09-03T16:01:27;1.50;;;1.13;;
21494;SDS011;10909;53.590;10.054;2022-09-03T16:06:46;1.70;;;1.30;;
21494;SDS011;10909;53.590;10.054;2022-09-03T16:09:55;2.13;;;1.00;;
21494;SDS011;10909;53.590;10.054;2022-09-03T16:12:35;0.98;;;0.88;;
21494;SDS011;10909;53.590;10.054;2022-09-03T16:15:22;1.10;;;0.90;;
21494;SDS011;10909;53.590;10.054;2022-09-03T16:20:42;1.38;;;0.90;;
21494;SDS011;10909;53.590;10.054;2022-09-03T16:25:54;1.70;;;0.80;;
21494;SDS011;10909;53.590;10.054;2022-09-03T16:28:48;1.20;;;0.80;;
21494;SDS011;10909;53.590;10.054;2022-09-03T16:31:39;1.58;;;0.70;;
21494;SDS011;10909;53.590;10.054;2022-09-03T16:45:29;0.82;;;0.70;;
21494;SDS011;10909;53.590;10.054;2022-09-03T16:48:11;1.00;;;0.90;;
21494;SDS011;10909;53.590;10.054;2022-09-03T17:04:43;1.20;;;0.90;;
21494;SDS011;10909;53.590;10.054;2022-09-03T17:21:13;1.52;;;0.90;;
21494;SDS011;10909;53.590;10.054;2022-09-03T17:26:45;1.38;;;0.93;;
21494;SDS011;10909;53.590;10.054;2022-09-03T17:29:30;3.58;;;0.82;;
21494;SDS011;10909;53.590;10.054;2022-09-03T17:37:41;1.10;;;0.80;;
21494;SDS011;10909;53.590;10.054;2022-09-03T17:48:52;0.98;;;0.80;;
21494;SDS011;10909;53.590;10.054;2022-09-03T17:51:33;1.05;;;0.90;;
21494;SDS011;10909;53.590;10.054;2022-09-03T17:56:41;2.28;;;1.17;;
21494;SDS011;10909;53.590;10.054;2022-09-03T17:59:11;1.25;;;1.00;;
21494;SDS011;10909;53.590;10.054;2022-09-03T18:01:53;0.88;;;0.88;;
21494;SDS011;10909;53.590;10.054;2022-09-03T18:07:13;1.35;;;1.00;;
21494;SDS011;10909;53.590;10.054;2022-09-03T18:15:28;1.13;;;1.00;;
21494;SDS011;10909;53.590;10.054;2022-09-03T18:18:04;1.15;;;0.90;;
21494;SDS011;10909;53.590;10.054;2022-09-03T18:20:44;1.55;;;1.20;;
21494;SDS011;10909;53.590;10.054;2022-09-03T18:23:39;1.08;;;0.98;;
21494;SDS011;10909;53.590;10.054;2022-09-03T18:26:36;1.33;;;0.93;;
21494;SDS011;10909;53.590;10.054;2022-09-03T18:29:31;1.35;;;1.20;;
21494;SDS011;10909;53.590;10.054;2022-09-03T18:32:20;1.20;;;1.10;;
21494;SDS011;10909;53.590;10.054;2022-09-03T18:35:05;1.50;;;1.40;;
21494;SDS011;10909;53.590;10.054;2022-09-03T18:37:51;1.77;;;1.63;;
21494;SDS011;10909;53.590;10.054;2022-09-03T18:40:38;2.28;;;1.83;;
21494;SDS011;10909;53.590;10.054;2022-09-03T18:43:38;2.63;;;1.50;;
21494;SDS011;10909;53.590;10.054;2022-09-03T18:49:39;1.77;;;1.23;;
21494;SDS011;10909;53.590;10.054;2022-09-03T19:01:37;1.67;;;1.20;;
21494;SDS011;10909;53.590;10.054;2022-09-03T19:04:27;1.45;;;1.30;;
21494;SDS011;10909;53.590;10.054;2022-09-03T19:10:26;3.30;;;1.35;;
21494;SDS011;10909;53.590;10.054;2022-09-03T19:16:30;1.15;;;1.05;;
21494;SDS011;10909;53.590;10.054;2022-09-03T19:22:42;1.63;;;1.08;;
21494;SDS011;10909;53.590;10.054;2022-09-03T19:25:26;1.10;;;1.00;;
21494;SDS011;10909;53.590;10.054;2022-09-03T19:28:25;1.35;;;1.10;;
21494;SDS011;10909;53.590;10.054;2022-09-03T19:37:16;2.00;;;1.08;;
21494;SDS011;10909;53.590;10.054;2022-09-03T19:40:57;1.42;;;1.23;;
21494;SDS011;10909;53.590;10.054;2022-09-03T19:47:00;1.30;;;1.20;;
21494;SDS011;10909;53.590;10.054;2022-09-03T19:52:57;1.23;;;1.10;;
21494;SDS011;10909;53.590;10.054;2022-09-03T19:55:54;1.20;;;1.10;;
21494;SDS011;10909;53.590;10.054;2022-09-03T19:58:46;1.15;;;1.05;;
21494;SDS011;10909;53.590;10.054;2022-09-03T20:01:35;1.17;;;1.08;;
21494;SDS011;10909;53.590;10.054;2022-09-03T20:04:24;1.20;;;1.00;;
21494;SDS011;10909;53.590;10.054;2022-09-03T20:07:15;1.42;;;1.17;;
21494;SDS011;10909;53.590;10.054;2022-09-03T20:10:02;1.50;;;1.30;;
21494;SDS011;10909;53.590;10.054;2022-09-03T20:13:01;2.72;;;1.60;;
21494;SDS011;10909;53.590;10.054;2022-09-03T20:18:10;1.63;;;1.48;;
21494;SDS011;10909;53.590;10.054;2022-09-03T20:29:09;1.33;;;1.15;;
21494;SDS011;10909;53.590;10.054;2022-09-03T20:31:51;2.55;;;0.90;;
21494;SDS011;10909;53.590;10.054;2022-09-03T20:34:24;1.10;;;1.00;;
21494;SDS011;10909;53.590;10.054;2022-09-03T20:40:39;2.50;;;0.88;;
21494;SDS011;10909;53.590;10.054;2022-09-03T20:43:01;2.20;;;1.00;;
21494;SDS011;10909;53.590;10.054;2022-09-03T20:45:31;0.90;;;0.90;;
21494;SDS011;10909;53.590;10.054;2022-09-03T20:48:16;1.38;;;1.02;;
21494;SDS011;10909;53.590;10.054;2022-09-03T20:51:06;1.30;;;0.90;;